sensor_id;sensor_type;location;lat;lon;timestamp;temperature;humidity
52275;DHT22;38228;50.940;4.024;2022-08-19T00:00:20;19.70;99.90
52275;DHT22;38228;50.940;4.024;2022-08-19T00:02:45;19.70;99.90
52275;DHT22;38228;50.940;4.024;2022-08-19T00:05:13;19.70;99.90
52275;DHT22;38228;50.940;4.024;2022-08-19T00:07:39;19.80;99.90
52275;DHT22;38228;50.940;4.024;2022-08-19T00:10:07;19.90;99.90
52275;DHT22;38228;50.940;4.024;2022-08-19T00:12:33;19.90;99.90
52275;DHT22;38228;50.940;4.024;2022-08-19T00:14:59;20.10;99.90
52275;DHT22;38228;50.940;4.024;2022-08-19T00:17:25;20.20;99.90
52275;DHT22;38228;50.940;4.024;2022-08-19T00:19:51;20.20;99.90
52275;DHT22;38228;50.940;4.024;2022-08-19T00:22:17;20.20;99.90
52275;DHT22;38228;50.940;4.024;2022-08-19T00:24:44;20.10;99.90
52275;DHT22;38228;50.940;4.024;2022-08-19T00:27:11;20.20;99.90
52275;DHT22;38228;50.940;4.024;2022-08-19T00:29:37;20.30;99.90
52275;DHT22;38228;50.940;4.024;2022-08-19T00:32:04;20.30;99.90
52275;DHT22;38228;50.940;4.024;2022-08-19T00:34:29;20.40;99.90
52275;DHT22;38228;50.940;4.024;2022-08-19T00:36:56;20.40;99.90
52275;DHT22;38228;50.940;4.024;2022-08-19T00:39:22;20.30;99.90
52275;DHT22;38228;50.940;4.024;2022-08-19T00:41:48;20.30;99.90
52275;DHT22;38228;50.940;4.024;2022-08-19T00:44:21;20.30;99.90
52275;DHT22;38228;50.940;4.024;2022-08-19T00:46:49;20.30;99.90
52275;DHT22;38228;50.940;4.024;2022-08-19T00:51:50;20.30;99.90
52275;DHT22;38228;50.940;4.024;2022-08-19T00:54:18;20.20;99.90
52275;DHT22;38228;50.940;4.024;2022-08-19T00:56:44;20.20;99.90
52275;DHT22;38228;50.940;4.024;2022-08-19T00:59:10;20.20;99.90
52275;DHT22;38228;50.940;4.024;2022-08-19T01:01:40;20.30;99.90
52275;DHT22;38228;50.940;4.024;2022-08-19T01:04:07;20.20;99.90
52275;DHT22;38228;50.940;4.024;2022-08-19T01:06:35;20.20;99.90
52275;DHT22;38228;50.940;4.024;2022-08-19T01:09:01;20.30;99.90
52275;DHT22;38228;50.940;4.024;2022-08-19T01:11:28;20.30;99.90
52275;DHT22;38228;50.940;4.024;2022-08-19T01:13:55;20.10;99.90
52275;DHT22;38228;50.940;4.024;2022-08-19T01:16:23;19.90;99.90
52275;DHT22;38228;50.940;4.024;2022-08-19T01:18:50;19.80;99.90
52275;DHT22;38228;50.940;4.024;2022-08-19T01:21:44;19.80;99.90
52275;DHT22;38228;50.940;4.024;2022-08-19T01:24:12;19.90;99.90
52275;DHT22;38228;50.940;4.024;2022-08-19T01:26:41;19.90;99.90
52275;DHT22;38228;50.940;4.024;2022-08-19T01:29:08;19.80;99.90
52275;DHT22;38228;50.940;4.024;2022-08-19T01:31:35;19.80;99.90
52275;DHT22;38228;50.940;4.024;2022-08-19T01:34:03;19.80;99.90
52275;DHT22;38228;50.940;4.024;2022-08-19T01:36:39;19.80;99.90
52275;DHT22;38228;50.940;4.024;2022-08-19T01:39:07;19.70;99.90
52275;DHT22;38228;50.940;4.024;2022-08-19T01:41:34;19.70;99.90
52275;DHT22;38228;50.940;4.024;2022-08-19T01:44:00;19.60;99.90
52275;DHT22;38228;50.940;4.024;2022-08-19T01:46:29;19.70;99.90
52275;DHT22;38228;50.940;4.024;2022-08-19T01:48:55;19.60;99.90
52275;DHT22;38228;50.940;4.024;2022-08-19T01:51:21;19.70;99.90
52275;DHT22;38228;50.940;4.024;2022-08-19T01:53:48;19.70;99.90
52275;DHT22;38228;50.940;4.024;2022-08-19T01:56:14;19.70;99.90
52275;DHT22;38228;50.940;4.024;2022-08-19T01:58:44;19.70;99.90
52275;DHT22;38228;50.940;4.024;2022-08-19T02:01:13;19.60;99.90
52275;DHT22;38228;50.940;4.024;2022-08-19T02:03:39;19.60;99.90
52275;DHT22;38228;50.940;4.024;2022-08-19T02:06:05;19.60;99.90
52275;DHT22;38228;50.940;4.024;2022-08-19T02:08:33;19.60;99.90
52275;DHT22;38228;50.940;4.024;2022-08-19T02:11:00;19.60;99.90
52275;DHT22;38228;50.940;4.024;2022-08-19T02:13:27;19.50;99.90
52275;DHT22;38228;50.940;4.024;2022-08-19T02:15:53;19.60;99.90
52275;DHT22;38228;50.940;4.024;2022-08-19T02:18:19;19.40;99.90
52275;DHT22;38228;50.940;4.024;2022-08-19T02:20:45;19.40;99.90
52275;DHT22;38228;50.940;4.024;2022-08-19T02:23:14;19.30;99.90
52275;DHT22;38228;50.940;4.024;2022-08-19T02:25:40;19.30;99.90
52275;DHT22;38228;50.940;4.024;2022-08-19T02:28:06;19.30;99.90
52275;DHT22;38228;50.940;4.024;2022-08-19T02:30:33;19.20;99.90
52275;DHT22;38228;50.940;4.024;2022-08-19T02:32:58;19.20;99.90
52275;DHT22;38228;50.940;4.024;2022-08-19T02:35:24;19.20;99.90
52275;DHT22;38228;50.940;4.024;2022-08-19T02:37:50;19.20;99.90
52275;DHT22;38228;50.940;4.024;2022-08-19T02:40:35;19.20;99.90
52275;DHT22;38228;50.940;4.024;2022-08-19T02:43:06;19.20;99.90
52275;DHT22;38228;50.940;4.024;2022-08-19T02:45:37;19.10;99.90
52275;DHT22;38228;50.940;4.024;2022-08-19T02:48:03;19.10;99.90
52275;DHT22;38228;50.940;4.024;2022-08-19T02:50:30;19.00;99.90
52275;DHT22;38228;50.940;4.024;2022-08-19T02:52:56;19.00;99.90
52275;DHT22;38228;50.940;4.024;2022-08-19T02:55:22;18.90;99.90
52275;DHT22;38228;50.940;4.024;2022-08-19T02:57:48;19.00;99.90
52275;DHT22;38228;50.940;4.024;2022-08-19T03:00:14;18.90;99.90
52275;DHT22;38228;50.940;4.024;2022-08-19T03:02:40;18.80;99.90
52275;DHT22;38228;50.940;4.024;2022-08-19T03:05:08;18.70;99.90
52275;DHT22;38228;50.940;4.024;2022-08-19T03:07:35;18.70;99.90
52275;DHT22;38228;50.940;4.024;2022-08-19T03:10:01;18.80;99.90
52275;DHT22;38228;50.940;4.024;2022-08-19T03:12:26;18.70;99.90
52275;DHT22;38228;50.940;4.024;2022-08-19T03:14:52;18.80;99.90
52275;DHT22;38228;50.940;4.024;2022-08-19T03:17:18;18.80;99.90
52275;DHT22;38228;50.940;4.024;2022-08-19T03:19:44;18.80;99.90
52275;DHT22;38228;50.940;4.024;2022-08-19T03:22:10;18.70;99.90
52275;DHT22;38228;50.940;4.024;2022-08-19T03:24:36;18.80;99.90
52275;DHT22;38228;50.940;4.024;2022-08-19T03:27:02;18.70;99.90
52275;DHT22;38228;50.940;4.024;2022-08-19T03:29:31;18.70;99.90
52275;DHT22;38228;50.940;4.024;2022-08-19T03:31:58;18.80;99.90
52275;DHT22;38228;50.940;4.024;2022-08-19T03:34:28;18.80;99.90
52275;DHT22;38228;50.940;4.024;2022-08-19T03:36:57;18.80;99.90
52275;DHT22;38228;50.940;4.024;2022-08-19T03:39:25;18.60;99.90
52275;DHT22;38228;50.940;4.024;2022-08-19T03:41:54;18.60;99.90
52275;DHT22;38228;50.940;4.024;2022-08-19T03:44:22;18.60;99.90
52275;DHT22;38228;50.940;4.024;2022-08-19T03:46:54;18.60;99.90
52275;DHT22;38228;50.940;4.024;2022-08-19T03:49:21;18.50;99.90
52275;DHT22;38228;50.940;4.024;2022-08-19T03:51:49;18.30;99.90
52275;DHT22;38228;50.940;4.024;2022-08-19T03:54:18;18.30;99.90
52275;DHT22;38228;50.940;4.024;2022-08-19T03:56:46;18.30;99.90
52275;DHT22;38228;50.940;4.024;2022-08-19T03:59:19;18.30;99.90
52275;DHT22;38228;50.940;4.024;2022-08-19T04:01:46;18.30;99.90
52275;DHT22;38228;50.940;4.024;2022-08-19T04:04:11;18.30;99.90
52275;DHT22;38228;50.940;4.024;2022-08-19T04:06:38;18.40;99.90
52275;DHT22;38228;50.940;4.024;2022-08-19T04:09:07;18.30;99.90
52275;DHT22;38228;50.940;4.024;2022-08-19T04:11:40;18.30;99.90
52275;DHT22;38228;50.940;4.024;2022-08-19T04:14:07;18.30;99.90
52275;DHT22;38228;50.940;4.024;2022-08-19T04:16:34;18.30;99.90
52275;DHT22;38228;50.940;4.024;2022-08-19T04:19:01;18.30;99.90
52275;DHT22;38228;50.940;4.024;2022-08-19T04:21:28;18.30;99.90
52275;DHT22;38228;50.940;4.024;2022-08-19T04:23:55;18.30;99.90
52275;DHT22;38228;50.940;4.024;2022-08-19T04:26:32;18.30;99.90
52275;DHT22;38228;50.940;4.024;2022-08-19T04:28:59;18.40;99.90
52275;DHT22;38228;50.940;4.024;2022-08-19T04:31:28;18.40;99.90
52275;DHT22;38228;50.940;4.024;2022-08-19T04:33:56;18.30;99.90
52275;DHT22;38228;50.940;4.024;2022-08-19T04:36:28;18.20;99.90
52275;DHT22;38228;50.940;4.024;2022-08-19T04:39:00;18.30;99.90
52275;DHT22;38228;50.940;4.024;2022-08-19T04:41:26;18.20;99.90
52275;DHT22;38228;50.940;4.024;2022-08-19T04:44:11;18.20;99.90
52275;DHT22;38228;50.940;4.024;2022-08-19T04:46:37;18.20;99.90
52275;DHT22;38228;50.940;4.024;2022-08-19T04:49:04;18.20;99.90
52275;DHT22;38228;50.940;4.024;2022-08-19T04:51:31;18.30;99.90
52275;DHT22;38228;50.940;4.024;2022-08-19T04:53:57;18.30;99.90
52275;DHT22;38228;50.940;4.024;2022-08-19T04:56:25;18.30;99.90
52275;DHT22;38228;50.940;4.024;2022-08-19T04:58:52;18.30;99.90
52275;DHT22;38228;50.940;4.024;2022-08-19T05:01:22;18.30;99.90
52275;DHT22;38228;50.940;4.024;2022-08-19T05:03:49;18.20;99.90
52275;DHT22;38228;50.940;4.024;2022-08-19T05:06:16;18.30;99.90
52275;DHT22;38228;50.940;4.024;2022-08-19T05:08:43;18.40;99.90
52275;DHT22;38228;50.940;4.024;2022-08-19T05:11:25;18.30;99.90
52275;DHT22;38228;50.940;4.024;2022-08-19T05:13:51;18.30;99.90
52275;DHT22;38228;50.940;4.024;2022-08-19T05:16:20;18.40;99.90
52275;DHT22;38228;50.940;4.024;2022-08-19T05:18:46;18.40;99.90
52275;DHT22;38228;50.940;4.024;2022-08-19T05:21:30;18.40;99.90
52275;DHT22;38228;50.940;4.024;2022-08-19T05:24:15;18.40;99.90
52275;DHT22;38228;50.940;4.024;2022-08-19T05:26:44;18.40;99.90
52275;DHT22;38228;50.940;4.024;2022-08-19T05:29:12;18.40;99.90
52275;DHT22;38228;50.940;4.024;2022-08-19T05:31:38;18.40;99.90
52275;DHT22;38228;50.940;4.024;2022-08-19T05:34:05;18.40;99.90
52275;DHT22;38228;50.940;4.024;2022-08-19T05:36:35;18.50;99.90
52275;DHT22;38228;50.940;4.024;2022-08-19T05:39:06;18.50;99.90
52275;DHT22;38228;50.940;4.024;2022-08-19T05:41:32;18.60;99.90
52275;DHT22;38228;50.940;4.024;2022-08-19T05:44:00;18.60;99.90
52275;DHT22;38228;50.940;4.024;2022-08-19T05:46:26;18.70;99.90
52275;DHT22;38228;50.940;4.024;2022-08-19T05:48:52;18.70;99.90
52275;DHT22;38228;50.940;4.024;2022-08-19T05:51:18;18.80;99.90
52275;DHT22;38228;50.940;4.024;2022-08-19T05:53:44;18.90;99.90
52275;DHT22;38228;50.940;4.024;2022-08-19T05:56:15;18.80;99.90
52275;DHT22;38228;50.940;4.024;2022-08-19T05:58:42;18.80;99.90
52275;DHT22;38228;50.940;4.024;2022-08-19T06:01:17;18.80;99.90
52275;DHT22;38228;50.940;4.024;2022-08-19T06:03:43;19.00;99.90
52275;DHT22;38228;50.940;4.024;2022-08-19T06:06:11;19.00;99.90
52275;DHT22;38228;50.940;4.024;2022-08-19T06:08:37;19.20;99.90
52275;DHT22;38228;50.940;4.024;2022-08-19T06:13:50;19.30;99.90
52275;DHT22;38228;50.940;4.024;2022-08-19T06:16:17;19.40;99.90
52275;DHT22;38228;50.940;4.024;2022-08-19T06:18:50;19.40;99.90
52275;DHT22;38228;50.940;4.024;2022-08-19T06:21:24;19.50;99.90
52275;DHT22;38228;50.940;4.024;2022-08-19T06:23:51;19.60;99.90
52275;DHT22;38228;50.940;4.024;2022-08-19T06:26:18;19.70;99.90
52275;DHT22;38228;50.940;4.024;2022-08-19T06:28:45;19.80;99.90
52275;DHT22;38228;50.940;4.024;2022-08-19T06:31:18;20.00;99.90
52275;DHT22;38228;50.940;4.024;2022-08-19T06:33:45;20.10;99.90
52275;DHT22;38228;50.940;4.024;2022-08-19T06:36:25;20.20;99.90
52275;DHT22;38228;50.940;4.024;2022-08-19T06:38:56;20.30;99.90
52275;DHT22;38228;50.940;4.024;2022-08-19T06:41:23;20.40;99.90
52275;DHT22;38228;50.940;4.024;2022-08-19T06:43:49;20.50;99.90
52275;DHT22;38228;50.940;4.024;2022-08-19T06:46:16;20.60;99.90
52275;DHT22;38228;50.940;4.024;2022-08-19T06:48:44;20.70;99.90
52275;DHT22;38228;50.940;4.024;2022-08-19T06:51:09;20.70;99.90
52275;DHT22;38228;50.940;4.024;2022-08-19T06:53:35;20.70;99.90
52275;DHT22;38228;50.940;4.024;2022-08-19T06:56:01;20.80;99.90
52275;DHT22;38228;50.940;4.024;2022-08-19T06:58:31;20.90;99.90
52275;DHT22;38228;50.940;4.024;2022-08-19T07:01:01;21.00;99.90
52275;DHT22;38228;50.940;4.024;2022-08-19T07:03:33;21.10;99.90
52275;DHT22;38228;50.940;4.024;2022-08-19T07:06:11;21.20;99.90
52275;DHT22;38228;50.940;4.024;2022-08-19T07:08:38;21.60;99.90
52275;DHT22;38228;50.940;4.024;2022-08-19T07:11:09;21.70;99.90
52275;DHT22;38228;50.940;4.024;2022-08-19T07:13:36;21.70;99.90
52275;DHT22;38228;50.940;4.024;2022-08-19T07:16:07;21.90;99.90
52275;DHT22;38228;50.940;4.024;2022-08-19T07:18:34;22.00;99.90
52275;DHT22;38228;50.940;4.024;2022-08-19T07:21:09;22.10;99.90
52275;DHT22;38228;50.940;4.024;2022-08-19T07:23:35;22.20;99.90
52275;DHT22;38228;50.940;4.024;2022-08-19T07:26:15;22.20;99.90
52275;DHT22;38228;50.940;4.024;2022-08-19T07:28:42;22.30;99.90
52275;DHT22;38228;50.940;4.024;2022-08-19T07:31:15;22.20;99.90
52275;DHT22;38228;50.940;4.024;2022-08-19T07:33:41;22.30;99.90
52275;DHT22;38228;50.940;4.024;2022-08-19T07:36:10;22.30;99.90
52275;DHT22;38228;50.940;4.024;2022-08-19T07:38:41;22.10;99.90
52275;DHT22;38228;50.940;4.024;2022-08-19T07:41:13;22.00;99.90
52275;DHT22;38228;50.940;4.024;2022-08-19T07:43:40;22.10;99.90
52275;DHT22;38228;50.940;4.024;2022-08-19T07:46:06;22.20;99.90
52275;DHT22;38228;50.940;4.024;2022-08-19T07:48:32;22.10;99.90
52275;DHT22;38228;50.940;4.024;2022-08-19T07:51:00;22.10;99.90
52275;DHT22;38228;50.940;4.024;2022-08-19T07:53:31;22.10;99.90
52275;DHT22;38228;50.940;4.024;2022-08-19T07:55:58;22.20;99.90
52275;DHT22;38228;50.940;4.024;2022-08-19T07:58:27;22.10;99.90
52275;DHT22;38228;50.940;4.024;2022-08-19T08:00:53;22.10;99.90
52275;DHT22;38228;50.940;4.024;2022-08-19T08:03:22;22.10;99.90
52275;DHT22;38228;50.940;4.024;2022-08-19T08:06:08;22.30;99.90
52275;DHT22;38228;50.940;4.024;2022-08-19T08:08:52;22.40;99.90
52275;DHT22;38228;50.940;4.024;2022-08-19T08:11:43;22.40;99.90
52275;DHT22;38228;50.940;4.024;2022-08-19T08:14:16;22.40;99.90
52275;DHT22;38228;50.940;4.024;2022-08-19T08:16:42;22.30;99.90
52275;DHT22;38228;50.940;4.024;2022-08-19T08:19:09;22.50;99.90
52275;DHT22;38228;50.940;4.024;2022-08-19T08:21:35;22.50;99.90
52275;DHT22;38228;50.940;4.024;2022-08-19T08:24:01;22.40;99.90
52275;DHT22;38228;50.940;4.024;2022-08-19T08:26:26;22.40;99.90
52275;DHT22;38228;50.940;4.024;2022-08-19T08:28:53;22.40;99.90
52275;DHT22;38228;50.940;4.024;2022-08-19T08:31:19;22.40;99.90
52275;DHT22;38228;50.940;4.024;2022-08-19T08:33:46;22.40;99.90
52275;DHT22;38228;50.940;4.024;2022-08-19T08:36:12;22.50;99.90
52275;DHT22;38228;50.940;4.024;2022-08-19T08:38:40;22.50;99.90
52275;DHT22;38228;50.940;4.024;2022-08-19T08:43:56;22.50;99.90
52275;DHT22;38228;50.940;4.024;2022-08-19T08:46:40;22.70;99.90
52275;DHT22;38228;50.940;4.024;2022-08-19T08:49:41;22.70;99.90
52275;DHT22;38228;50.940;4.024;2022-08-19T08:54:45;22.80;99.90
52275;DHT22;38228;50.940;4.024;2022-08-19T08:57:23;22.80;99.90
52275;DHT22;38228;50.940;4.024;2022-08-19T08:59:51;22.90;99.90
52275;DHT22;38228;50.940;4.024;2022-08-19T09:02:19;22.80;99.90
52275;DHT22;38228;50.940;4.024;2022-08-19T09:04:45;22.80;99.90
52275;DHT22;38228;50.940;4.024;2022-08-19T09:07:33;22.70;99.90
52275;DHT22;38228;50.940;4.024;2022-08-19T09:15:53;23.30;99.90
52275;DHT22;38228;50.940;4.024;2022-08-19T09:18:20;23.20;99.90
52275;DHT22;38228;50.940;4.024;2022-08-19T09:20:46;22.90;99.90
52275;DHT22;38228;50.940;4.024;2022-08-19T09:23:13;22.70;99.90
52275;DHT22;38228;50.940;4.024;2022-08-19T09:25:38;22.60;99.90
52275;DHT22;38228;50.940;4.024;2022-08-19T09:28:06;22.60;99.90
52275;DHT22;38228;50.940;4.024;2022-08-19T09:30:40;22.60;99.90
52275;DHT22;38228;50.940;4.024;2022-08-19T09:33:06;22.80;99.90
52275;DHT22;38228;50.940;4.024;2022-08-19T09:35:33;22.80;99.90
52275;DHT22;38228;50.940;4.024;2022-08-19T09:37:59;22.70;99.90
52275;DHT22;38228;50.940;4.024;2022-08-19T09:40:29;22.80;99.90
52275;DHT22;38228;50.940;4.024;2022-08-19T09:42:55;23.00;99.90
52275;DHT22;38228;50.940;4.024;2022-08-19T09:45:22;23.00;99.90
52275;DHT22;38228;50.940;4.024;2022-08-19T09:47:50;23.00;99.90
52275;DHT22;38228;50.940;4.024;2022-08-19T09:50:16;22.90;99.90
52275;DHT22;38228;50.940;4.024;2022-08-19T09:52:43;22.80;99.90
52275;DHT22;38228;50.940;4.024;2022-08-19T09:55:11;22.80;99.90
52275;DHT22;38228;50.940;4.024;2022-08-19T09:57:37;22.70;99.90
52275;DHT22;38228;50.940;4.024;2022-08-19T10:00:06;22.70;99.90
52275;DHT22;38228;50.940;4.024;2022-08-19T10:02:33;22.60;99.90
52275;DHT22;38228;50.940;4.024;2022-08-19T10:04:59;22.70;99.90
52275;DHT22;38228;50.940;4.024;2022-08-19T10:07:43;22.90;99.90
52275;DHT22;38228;50.940;4.024;2022-08-19T10:10:09;23.00;99.90
52275;DHT22;38228;50.940;4.024;2022-08-19T10:12:36;23.10;99.90
52275;DHT22;38228;50.940;4.024;2022-08-19T10:15:03;23.20;99.90
52275;DHT22;38228;50.940;4.024;2022-08-19T10:17:29;23.40;99.90
52275;DHT22;38228;50.940;4.024;2022-08-19T10:19:55;23.40;99.90
52275;DHT22;38228;50.940;4.024;2022-08-19T10:22:20;23.40;99.90
52275;DHT22;38228;50.940;4.024;2022-08-19T10:24:47;23.40;99.90
52275;DHT22;38228;50.940;4.024;2022-08-19T10:27:12;23.50;99.90
52275;DHT22;38228;50.940;4.024;2022-08-19T10:29:40;23.80;99.90
52275;DHT22;38228;50.940;4.024;2022-08-19T10:32:08;24.00;99.90
52275;DHT22;38228;50.940;4.024;2022-08-19T10:34:38;24.20;99.90
52275;DHT22;38228;50.940;4.024;2022-08-19T10:37:05;24.30;99.90
52275;DHT22;38228;50.940;4.024;2022-08-19T10:39:33;24.40;99.90
52275;DHT22;38228;50.940;4.024;2022-08-19T10:42:03;24.40;99.90
52275;DHT22;38228;50.940;4.024;2022-08-19T10:44:29;24.50;99.90
52275;DHT22;38228;50.940;4.024;2022-08-19T10:46:55;24.40;99.90
52275;DHT22;38228;50.940;4.024;2022-08-19T10:49:21;24.40;99.90
52275;DHT22;38228;50.940;4.024;2022-08-19T10:51:48;24.10;99.90
52275;DHT22;38228;50.940;4.024;2022-08-19T10:54:33;24.00;99.90
52275;DHT22;38228;50.940;4.024;2022-08-19T10:57:17;24.10;99.90
52275;DHT22;38228;50.940;4.024;2022-08-19T10:59:43;24.30;99.90
52275;DHT22;38228;50.940;4.024;2022-08-19T11:02:10;24.60;99.90
52275;DHT22;38228;50.940;4.024;2022-08-19T11:04:38;25.10;99.90
52275;DHT22;38228;50.940;4.024;2022-08-19T11:07:05;25.40;99.90
52275;DHT22;38228;50.940;4.024;2022-08-19T11:09:31;25.50;99.90
52275;DHT22;38228;50.940;4.024;2022-08-19T11:12:02;25.60;99.90
52275;DHT22;38228;50.940;4.024;2022-08-19T11:14:27;25.80;99.90
52275;DHT22;38228;50.940;4.024;2022-08-19T11:16:56;26.10;99.90
52275;DHT22;38228;50.940;4.024;2022-08-19T11:19:22;26.20;99.90
52275;DHT22;38228;50.940;4.024;2022-08-19T11:21:50;26.20;99.90
52275;DHT22;38228;50.940;4.024;2022-08-19T11:24:21;26.30;99.90
52275;DHT22;38228;50.940;4.024;2022-08-19T11:26:49;26.20;99.90
52275;DHT22;38228;50.940;4.024;2022-08-19T11:29:16;26.10;99.90
52275;DHT22;38228;50.940;4.024;2022-08-19T11:31:46;25.80;99.90
52275;DHT22;38228;50.940;4.024;2022-08-19T11:34:16;25.60;99.90
52275;DHT22;38228;50.940;4.024;2022-08-19T11:36:44;25.50;99.90
52275;DHT22;38228;50.940;4.024;2022-08-19T11:39:12;25.30;99.90
52275;DHT22;38228;50.940;4.024;2022-08-19T11:41:39;25.50;99.90
52275;DHT22;38228;50.940;4.024;2022-08-19T11:44:05;25.60;99.90
52275;DHT22;38228;50.940;4.024;2022-08-19T11:46:36;25.60;99.90
52275;DHT22;38228;50.940;4.024;2022-08-19T11:49:05;25.60;99.90
52275;DHT22;38228;50.940;4.024;2022-08-19T11:51:33;25.80;99.90
52275;DHT22;38228;50.940;4.024;2022-08-19T11:53:59;25.80;99.90
52275;DHT22;38228;50.940;4.024;2022-08-19T11:56:26;25.90;99.90
52275;DHT22;38228;50.940;4.024;2022-08-19T11:58:53;26.10;99.90
52275;DHT22;38228;50.940;4.024;2022-08-19T12:01:21;26.00;99.90
52275;DHT22;38228;50.940;4.024;2022-08-19T12:03:49;26.10;99.90
52275;DHT22;38228;50.940;4.024;2022-08-19T12:06:19;26.30;99.90
52275;DHT22;38228;50.940;4.024;2022-08-19T12:08:45;26.30;99.90
52275;DHT22;38228;50.940;4.024;2022-08-19T12:11:13;26.50;99.90
52275;DHT22;38228;50.940;4.024;2022-08-19T12:13:39;26.70;99.90
52275;DHT22;38228;50.940;4.024;2022-08-19T12:16:11;26.70;99.90
52275;DHT22;38228;50.940;4.024;2022-08-19T12:18:38;26.60;99.90
52275;DHT22;38228;50.940;4.024;2022-08-19T12:21:04;26.80;99.90
52275;DHT22;38228;50.940;4.024;2022-08-19T12:23:30;27.10;99.90
52275;DHT22;38228;50.940;4.024;2022-08-19T12:25:56;27.20;99.90
52275;DHT22;38228;50.940;4.024;2022-08-19T12:28:24;27.20;99.90
52275;DHT22;38228;50.940;4.024;2022-08-19T12:30:51;27.50;99.90
52275;DHT22;38228;50.940;4.024;2022-08-19T12:33:17;27.60;99.90
52275;DHT22;38228;50.940;4.024;2022-08-19T12:35:45;27.50;99.90
52275;DHT22;38228;50.940;4.024;2022-08-19T12:38:13;27.60;99.90
52275;DHT22;38228;50.940;4.024;2022-08-19T12:40:40;27.30;99.90
52275;DHT22;38228;50.940;4.024;2022-08-19T12:43:06;26.70;99.90
52275;DHT22;38228;50.940;4.024;2022-08-19T12:45:32;26.70;99.90
52275;DHT22;38228;50.940;4.024;2022-08-19T12:47:58;26.70;99.90
52275;DHT22;38228;50.940;4.024;2022-08-19T12:50:24;26.80;99.90
52275;DHT22;38228;50.940;4.024;2022-08-19T12:52:50;26.80;99.90
52275;DHT22;38228;50.940;4.024;2022-08-19T12:55:17;26.70;99.90
52275;DHT22;38228;50.940;4.024;2022-08-19T12:57:44;26.70;99.90
52275;DHT22;38228;50.940;4.024;2022-08-19T13:00:14;26.60;99.90
52275;DHT22;38228;50.940;4.024;2022-08-19T13:02:43;26.60;99.90
52275;DHT22;38228;50.940;4.024;2022-08-19T13:05:16;26.40;99.90
52275;DHT22;38228;50.940;4.024;2022-08-19T13:07:42;26.20;99.90
52275;DHT22;38228;50.940;4.024;2022-08-19T13:10:13;26.20;99.90
52275;DHT22;38228;50.940;4.024;2022-08-19T13:12:41;26.60;99.90
52275;DHT22;38228;50.940;4.024;2022-08-19T13:15:07;26.80;99.90
52275;DHT22;38228;50.940;4.024;2022-08-19T13:17:34;26.80;99.90
52275;DHT22;38228;50.940;4.024;2022-08-19T13:20:00;27.00;99.90
52275;DHT22;38228;50.940;4.024;2022-08-19T13:22:26;27.50;99.90
52275;DHT22;38228;50.940;4.024;2022-08-19T13:24:52;27.30;99.90
52275;DHT22;38228;50.940;4.024;2022-08-19T13:27:18;27.30;99.90
52275;DHT22;38228;50.940;4.024;2022-08-19T13:29:44;27.40;99.90
52275;DHT22;38228;50.940;4.024;2022-08-19T13:32:29;27.50;99.90
52275;DHT22;38228;50.940;4.024;2022-08-19T13:35:15;27.80;99.90
52275;DHT22;38228;50.940;4.024;2022-08-19T13:37:41;27.50;99.90
52275;DHT22;38228;50.940;4.024;2022-08-19T13:40:27;27.30;99.90
52275;DHT22;38228;50.940;4.024;2022-08-19T13:42:54;27.10;99.90
52275;DHT22;38228;50.940;4.024;2022-08-19T13:45:23;26.60;99.90
52275;DHT22;38228;50.940;4.024;2022-08-19T13:47:51;25.90;99.90
52275;DHT22;38228;50.940;4.024;2022-08-19T13:50:19;25.40;99.90
52275;DHT22;38228;50.940;4.024;2022-08-19T13:52:45;25.20;99.90
52275;DHT22;38228;50.940;4.024;2022-08-19T13:55:13;25.10;99.90
52275;DHT22;38228;50.940;4.024;2022-08-19T13:57:40;25.20;99.90
52275;DHT22;38228;50.940;4.024;2022-08-19T14:00:13;25.20;99.90
52275;DHT22;38228;50.940;4.024;2022-08-19T14:02:39;25.10;99.90
52275;DHT22;38228;50.940;4.024;2022-08-19T14:05:07;25.30;99.90
52275;DHT22;38228;50.940;4.024;2022-08-19T14:07:34;25.30;99.90
52275;DHT22;38228;50.940;4.024;2022-08-19T14:10:00;25.00;99.90
52275;DHT22;38228;50.940;4.024;2022-08-19T14:12:25;24.80;99.90
52275;DHT22;38228;50.940;4.024;2022-08-19T14:14:51;25.40;99.90
52275;DHT22;38228;50.940;4.024;2022-08-19T14:17:17;26.30;99.90
52275;DHT22;38228;50.940;4.024;2022-08-19T14:19:43;26.70;99.90
52275;DHT22;38228;50.940;4.024;2022-08-19T14:22:09;27.00;99.90
52275;DHT22;38228;50.940;4.024;2022-08-19T14:24:37;27.10;99.90
52275;DHT22;38228;50.940;4.024;2022-08-19T14:27:05;27.10;99.90
52275;DHT22;38228;50.940;4.024;2022-08-19T14:29:31;27.00;99.90
52275;DHT22;38228;50.940;4.024;2022-08-19T14:31:57;27.10;99.90
52275;DHT22;38228;50.940;4.024;2022-08-19T14:34:25;27.30;99.90
52275;DHT22;38228;50.940;4.024;2022-08-19T14:36:51;27.30;99.90
52275;DHT22;38228;50.940;4.024;2022-08-19T14:39:17;27.60;99.90
52275;DHT22;38228;50.940;4.024;2022-08-19T14:41:43;27.70;99.90
52275;DHT22;38228;50.940;4.024;2022-08-19T14:44:10;27.30;99.90
52275;DHT22;38228;50.940;4.024;2022-08-19T14:46:38;26.80;99.90
52275;DHT22;38228;50.940;4.024;2022-08-19T14:49:04;26.20;99.90
52275;DHT22;38228;50.940;4.024;2022-08-19T14:51:31;26.10;99.90
52275;DHT22;38228;50.940;4.024;2022-08-19T14:53:56;26.00;99.90
52275;DHT22;38228;50.940;4.024;2022-08-19T14:56:25;25.70;99.90
52275;DHT22;38228;50.940;4.024;2022-08-19T14:58:52;25.50;99.90
52275;DHT22;38228;50.940;4.024;2022-08-19T15:01:19;25.30;99.90
52275;DHT22;38228;50.940;4.024;2022-08-19T15:03:47;25.50;99.90
52275;DHT22;38228;50.940;4.024;2022-08-19T15:06:12;25.50;99.90
52275;DHT22;38228;50.940;4.024;2022-08-19T15:08:40;25.50;99.90
52275;DHT22;38228;50.940;4.024;2022-08-19T15:11:16;25.80;99.90
52275;DHT22;38228;50.940;4.024;2022-08-19T15:13:43;26.20;99.90
52275;DHT22;38228;50.940;4.024;2022-08-19T15:16:10;26.90;99.90
52275;DHT22;38228;50.940;4.024;2022-08-19T15:18:36;27.20;99.90
52275;DHT22;38228;50.940;4.024;2022-08-19T15:21:03;27.40;99.90
52275;DHT22;38228;50.940;4.024;2022-08-19T15:23:29;27.80;99.90
52275;DHT22;38228;50.940;4.024;2022-08-19T15:25:55;27.70;99.90
52275;DHT22;38228;50.940;4.024;2022-08-19T15:28:25;27.50;99.90
52275;DHT22;38228;50.940;4.024;2022-08-19T15:30:51;27.60;99.90
52275;DHT22;38228;50.940;4.024;2022-08-19T15:33:18;27.10;99.90
52275;DHT22;38228;50.940;4.024;2022-08-19T15:35:46;26.90;99.90
52275;DHT22;38228;50.940;4.024;2022-08-19T15:38:12;26.80;99.90
52275;DHT22;38228;50.940;4.024;2022-08-19T15:40:39;26.80;99.90
52275;DHT22;38228;50.940;4.024;2022-08-19T15:43:06;26.80;99.90
52275;DHT22;38228;50.940;4.024;2022-08-19T15:45:31;26.50;99.90
52275;DHT22;38228;50.940;4.024;2022-08-19T15:48:02;26.50;99.90
52275;DHT22;38228;50.940;4.024;2022-08-19T15:50:29;26.80;99.90
52275;DHT22;38228;50.940;4.024;2022-08-19T15:52:59;26.90;99.90